createdAt,value
2019-03-31T00:02:26.864Z,55.27
2019-03-31T00:04:59.539Z,56.22
2019-03-31T00:07:32.218Z,57.66
2019-03-31T00:10:06.571Z,58.89
2019-03-31T00:12:39.627Z,59.34
2019-03-31T00:15:12.506Z,61.26
2019-03-31T00:17:45.094Z,61.67
2019-03-31T00:20:17.972Z,64.18
2019-03-31T00:22:50.552Z,56.79
2019-03-31T00:25:23.126Z,51.53
2019-03-31T00:27:55.697Z,52.60
2019-03-31T00:30:28.998Z,54.33
2019-03-31T00:33:01.730Z,56.08
2019-03-31T00:35:34.348Z,57.93
2019-03-31T00:38:06.927Z,58.62
2019-03-31T00:40:39.507Z,59.88
2019-03-31T00:43:12.084Z,60.74
2019-03-31T00:45:44.654Z,61.23
2019-03-31T00:48:18.263Z,63.02
2019-03-31T00:50:50.834Z,60.44
2019-03-31T00:53:24.542Z,51.98
2019-03-31T00:55:57.117Z,52.61
2019-03-31T00:58:29.692Z,54.23
2019-03-31T01:01:04.301Z,55.65
2019-03-31T01:03:38.940Z,57.71
2019-03-31T01:06:12.443Z,58.69
2019-03-31T01:08:46.754Z,59.80
2019-03-31T01:11:22.408Z,59.91
2019-03-31T01:13:56.930Z,61.15
2019-03-31T01:16:31.446Z,64.16
2019-03-31T01:19:04.545Z,55.57
2019-03-31T01:21:37.119Z,50.48
2019-03-31T01:24:09.805Z,52.52
2019-03-31T01:26:43.278Z,54.04
2019-03-31T01:29:17.102Z,55.49
2019-03-31T01:31:50.906Z,57.61
2019-03-31T01:34:24.916Z,59.09
2019-03-31T01:36:57.591Z,60.41
2019-03-31T01:39:31.504Z,61.55
2019-03-31T01:42:04.179Z,62.49
2019-03-31T01:44:36.369Z,60.72
2019-03-31T01:47:09.438Z,53.41
2019-03-31T01:49:42.010Z,54.68
2019-03-31T01:52:14.594Z,56.83
2019-03-31T01:54:47.171Z,58.92
2019-03-31T01:57:19.747Z,59.64
2019-03-31T01:59:52.167Z,60.20
2019-03-31T02:02:29.397Z,62.18
2019-03-31T02:05:01.982Z,63.82
2019-03-31T02:07:35.478Z,56.66
2019-03-31T02:10:09.590Z,52.57
2019-03-31T02:12:43.812Z,54.15
2019-03-31T02:15:16.891Z,55.82
2019-03-31T02:17:49.531Z,57.80
2019-03-31T02:20:23.690Z,58.83
2019-03-31T02:22:56.268Z,59.11
2019-03-31T02:25:28.458Z,61.15
2019-03-31T02:28:01.007Z,61.93
2019-03-31T02:30:33.585Z,63.40
2019-03-31T02:33:06.059Z,61.29
2019-03-31T02:35:38.239Z,52.80
2019-03-31T02:38:10.805Z,53.63
2019-03-31T02:40:43.886Z,55.10
2019-03-31T02:43:16.463Z,56.50
2019-03-31T02:45:49.253Z,58.38
2019-03-31T02:48:21.826Z,60.14
2019-03-31T02:50:55.835Z,60.71
2019-03-31T02:53:28.571Z,61.63
2019-03-31T02:56:02.039Z,63.94
2019-03-31T02:58:34.790Z,60.05
2019-03-31T03:01:07.475Z,53.60
2019-03-31T03:03:42.408Z,54.39
2019-03-31T03:06:16.176Z,55.86
2019-03-31T03:08:51.593Z,57.63
2019-03-31T03:11:25.761Z,58.85
2019-03-31T03:14:02.237Z,60.02
2019-03-31T03:16:34.947Z,60.88
2019-03-31T03:19:07.487Z,62.35
2019-03-31T03:21:40.073Z,61.31
2019-03-31T03:24:12.657Z,52.54
2019-03-31T03:26:45.226Z,53.27
2019-03-31T03:29:17.691Z,55.03
2019-03-31T03:31:50.614Z,56.99
2019-03-31T03:34:23.374Z,58.65
2019-03-31T03:36:55.949Z,60.00
2019-03-31T03:39:28.516Z,60.17
2019-03-31T03:42:01.091Z,61.73
2019-03-31T03:44:33.669Z,63.34
2019-03-31T03:47:06.248Z,57.90
2019-03-31T03:49:38.838Z,52.49
2019-03-31T03:52:11.389Z,53.94
2019-03-31T03:54:43.975Z,56.17
2019-03-31T03:57:16.569Z,57.52
2019-03-31T03:59:49.101Z,59.07
2019-03-31T04:02:21.318Z,60.04
2019-03-31T04:04:53.974Z,61.05
2019-03-31T04:07:26.551Z,62.24
2019-03-31T04:09:59.127Z,61.21
2019-03-31T04:12:31.708Z,52.64
2019-03-31T04:15:04.273Z,53.16
2019-03-31T04:17:36.858Z,54.95
2019-03-31T04:20:09.438Z,56.45
2019-03-31T04:22:42.026Z,58.93
2019-03-31T04:25:14.594Z,58.99
2019-03-31T04:27:47.227Z,60.04
2019-03-31T04:30:19.739Z,61.35
2019-03-31T04:32:51.938Z,62.58
2019-03-31T04:35:24.586Z,60.37
2019-03-31T04:37:57.157Z,53.41
2019-03-31T04:40:29.531Z,54.33
2019-03-31T04:43:01.722Z,55.78
2019-03-31T04:45:34.688Z,57.66
2019-03-31T04:48:07.266Z,59.17
2019-03-31T04:50:41.271Z,60.73
2019-03-31T04:53:14.568Z,61.03
2019-03-31T04:55:48.477Z,63.26
2019-03-31T04:58:21.056Z,58.34
2019-03-31T05:00:53.640Z,53.95
2019-03-31T05:03:26.211Z,55.37
2019-03-31T05:05:58.790Z,57.09
2019-03-31T05:08:31.565Z,59.05
2019-03-31T05:11:04.146Z,60.37
2019-03-31T05:13:36.558Z,61.17
2019-03-31T05:16:09.079Z,61.71
2019-03-31T05:18:41.763Z,64.33
2019-03-31T05:21:14.237Z,57.95
2019-03-31T05:23:46.818Z,53.57
2019-03-31T05:26:20.427Z,54.44
2019-03-31T05:28:52.997Z,55.45
2019-03-31T05:31:25.630Z,57.20
2019-03-31T05:33:57.833Z,58.09
2019-03-31T05:36:30.310Z,60.09
2019-03-31T05:39:02.903Z,60.18
2019-03-31T05:41:35.468Z,60.99
2019-03-31T05:44:08.450Z,61.18
2019-03-31T05:46:41.037Z,63.47
2019-03-31T05:49:13.716Z,53.23
2019-03-31T05:51:46.290Z,52.91
2019-03-31T05:54:18.865Z,54.66
2019-03-31T05:56:51.442Z,56.16
2019-03-31T05:59:24.018Z,57.38
2019-03-31T06:01:56.596Z,58.11
2019-03-31T06:04:33.437Z,59.08
2019-03-31T06:07:02.979Z,59.94
2019-03-31T06:09:35.552Z,60.55
2019-03-31T06:12:08.139Z,61.26
2019-03-31T06:14:40.724Z,61.49
2019-03-31T06:17:14.309Z,64.21
2019-03-31T06:19:46.884Z,58.13
2019-03-31T06:22:19.454Z,52.77
2019-03-31T06:24:52.033Z,53.71
2019-03-31T06:27:25.636Z,54.76
2019-03-31T06:29:58.210Z,56.05
2019-03-31T06:32:30.790Z,56.98
2019-03-31T06:35:02.983Z,58.29
2019-03-31T06:37:35.529Z,58.29
2019-03-31T06:40:08.016Z,59.71
2019-03-31T06:42:40.383Z,60.74
2019-03-31T06:45:12.958Z,61.08
2019-03-31T06:47:45.529Z,61.88
2019-03-31T06:50:18.214Z,63.89
2019-03-31T06:52:50.738Z,57.43
2019-03-31T06:55:23.474Z,52.09
2019-03-31T06:57:56.046Z,52.64
2019-03-31T07:00:28.622Z,54.52
2019-03-31T07:03:01.251Z,55.67
2019-03-31T07:05:33.457Z,56.59
2019-03-31T07:08:06.147Z,57.14
2019-03-31T07:10:38.727Z,58.49
2019-03-31T07:13:11.314Z,59.38
2019-03-31T07:15:43.882Z,60.32
2019-03-31T07:18:16.495Z,60.70
2019-03-31T07:20:49.135Z,61.26
2019-03-31T07:23:21.805Z,61.77
2019-03-31T07:25:54.393Z,62.04
2019-03-31T07:28:26.974Z,62.20
2019-03-31T07:30:59.570Z,63.01
2019-03-31T07:33:32.521Z,56.93
2019-03-31T07:36:05.106Z,53.70
2019-03-31T07:38:39.241Z,54.74
2019-03-31T07:41:12.985Z,56.17
2019-03-31T07:43:47.027Z,56.93
2019-03-31T07:46:19.707Z,57.76
2019-03-31T07:48:52.298Z,58.29
2019-03-31T07:51:24.865Z,58.40
2019-03-31T07:53:57.441Z,58.79
2019-03-31T07:56:30.028Z,59.14
2019-03-31T07:59:02.672Z,59.37
2019-03-31T08:01:35.270Z,59.59
2019-03-31T08:04:07.855Z,58.91
2019-03-31T08:06:40.936Z,58.76
2019-03-31T08:09:13.511Z,59.35
2019-03-31T08:11:46.093Z,59.16
2019-03-31T08:14:18.670Z,58.44
2019-03-31T08:16:51.244Z,59.34
2019-03-31T08:19:23.824Z,59.96
2019-03-31T08:21:56.502Z,59.19
2019-03-31T08:24:30.611Z,59.26
2019-03-31T08:27:05.575Z,58.31
2019-03-31T08:29:37.511Z,58.84
2019-03-31T08:32:10.188Z,57.81
2019-03-31T08:34:42.768Z,58.45
2019-03-31T08:37:14.969Z,58.50
2019-03-31T08:39:47.530Z,57.25
2019-03-31T08:42:20.086Z,57.37
2019-03-31T08:44:52.220Z,57.53
2019-03-31T08:47:24.931Z,56.57
2019-03-31T08:49:57.506Z,56.39
2019-03-31T08:52:30.391Z,56.35
2019-03-31T08:55:02.967Z,56.77
2019-03-31T08:57:36.678Z,56.57
2019-03-31T09:00:13.431Z,56.87
2019-03-31T09:02:46.023Z,56.86
2019-03-31T09:05:18.601Z,56.28
2019-03-31T09:07:51.171Z,56.10
2019-03-31T09:10:23.754Z,56.05
2019-03-31T09:12:56.330Z,56.28
2019-03-31T09:15:28.907Z,55.37
2019-03-31T09:18:01.482Z,55.61
2019-03-31T09:20:34.056Z,55.70
2019-03-31T09:23:06.251Z,56.40
2019-03-31T09:25:38.797Z,55.74
2019-03-31T09:28:37.849Z,55.92
2019-03-31T09:31:11.243Z,55.82
2019-03-31T09:33:44.025Z,55.95
2019-03-31T09:36:16.994Z,55.68
2019-03-31T09:38:49.972Z,55.88
2019-03-31T09:41:22.227Z,55.61
2019-03-31T09:43:54.946Z,55.57
2019-03-31T09:46:28.135Z,55.75
2019-03-31T09:49:00.711Z,55.39
2019-03-31T09:51:32.845Z,55.69
2019-03-31T09:54:05.970Z,55.09
2019-03-31T09:56:39.570Z,55.27
2019-03-31T09:59:12.153Z,53.85
2019-03-31T10:01:45.027Z,54.64
2019-03-31T10:04:18.224Z,54.90
2019-03-31T10:06:50.793Z,54.47
2019-03-31T10:09:23.371Z,53.35
2019-03-31T10:11:56.153Z,52.74
2019-03-31T10:14:28.831Z,52.81
2019-03-31T10:17:01.518Z,52.86
2019-03-31T10:19:34.195Z,52.09
2019-03-31T10:22:06.781Z,52.34
2019-03-31T10:24:39.447Z,52.25
2019-03-31T10:27:12.325Z,51.57
2019-03-31T10:29:45.419Z,51.30
2019-03-31T10:32:19.218Z,51.71
2019-03-31T10:34:53.440Z,52.66
2019-03-31T10:37:26.026Z,51.72
2019-03-31T10:39:59.209Z,51.59
2019-03-31T10:42:31.692Z,50.72
2019-03-31T10:45:05.798Z,50.97
2019-03-31T10:47:38.682Z,49.45
2019-03-31T10:50:11.512Z,49.16
2019-03-31T10:52:43.599Z,48.55
2019-03-31T10:55:16.232Z,48.80
2019-03-31T10:57:50.012Z,49.45
2019-03-31T11:00:35.897Z,48.82
2019-03-31T11:03:09.030Z,48.85
2019-03-31T11:05:42.991Z,48.02
2019-03-31T11:08:15.891Z,48.24
2019-03-31T11:10:48.867Z,48.20
2019-03-31T11:13:21.446Z,47.56
2019-03-31T11:15:57.343Z,47.79
2019-03-31T11:18:28.433Z,47.63
2019-03-31T11:21:02.659Z,48.11
2019-03-31T11:23:35.281Z,48.77
2019-03-31T11:26:08.117Z,47.67
2019-03-31T11:28:41.100Z,47.28
2019-03-31T11:31:13.790Z,47.22
2019-03-31T11:33:48.098Z,46.11
2019-03-31T11:36:20.883Z,46.82
2019-03-31T11:38:53.468Z,47.42
2019-03-31T11:41:26.442Z,48.54
2019-03-31T11:44:01.471Z,48.34
2019-03-31T11:46:34.058Z,48.30
2019-03-31T11:49:07.142Z,48.32
2019-03-31T11:51:39.820Z,48.01
2019-03-31T11:54:12.493Z,46.66
2019-03-31T11:56:44.913Z,46.24
2019-03-31T11:59:20.681Z,45.56
2019-03-31T12:01:52.544Z,45.28
2019-03-31T12:04:25.174Z,45.15
2019-03-31T12:06:57.841Z,45.09
2019-03-31T12:09:30.417Z,45.08
2019-03-31T12:12:03.101Z,45.60
2019-03-31T12:14:37.409Z,46.30
2019-03-31T12:17:10.299Z,46.51
2019-03-31T12:19:43.554Z,46.51
2019-03-31T12:22:16.678Z,46.52
2019-03-31T12:24:49.259Z,46.02
2019-03-31T12:27:21.447Z,44.82
2019-03-31T12:29:54.002Z,44.62
2019-03-31T12:32:26.184Z,45.17
2019-03-31T12:34:58.951Z,44.98
2019-03-31T12:37:42.243Z,45.40
2019-03-31T12:40:09.423Z,45.62
2019-03-31T12:42:42.114Z,46.08
2019-03-31T12:45:15.606Z,46.24
2019-03-31T12:47:48.181Z,46.63
2019-03-31T12:50:21.886Z,46.76
2019-03-31T12:52:54.568Z,47.50
2019-03-31T12:55:28.200Z,48.03
2019-03-31T12:58:02.174Z,48.82
2019-03-31T13:00:35.166Z,48.76
2019-03-31T13:03:07.852Z,49.10
2019-03-31T13:05:40.835Z,48.85
2019-03-31T13:08:14.111Z,49.14
2019-03-31T13:10:46.689Z,48.05
2019-03-31T13:13:19.433Z,44.54
2019-03-31T13:15:52.107Z,44.36
2019-03-31T13:18:27.774Z,42.97
2019-03-31T13:20:58.992Z,42.40
2019-03-31T13:23:31.634Z,42.00
2019-03-31T13:26:04.212Z,41.84
2019-03-31T13:28:36.415Z,42.40
2019-03-31T13:31:09.151Z,42.83
2019-03-31T13:33:41.838Z,43.49
2019-03-31T13:36:14.319Z,44.41
2019-03-31T13:38:47.504Z,44.80
2019-03-31T13:41:20.091Z,45.29
2019-03-31T13:43:52.644Z,45.58
2019-03-31T13:46:25.859Z,46.41
2019-03-31T13:48:58.522Z,46.66
2019-03-31T13:51:30.757Z,46.87
2019-03-31T13:54:03.716Z,47.34
2019-03-31T13:56:38.551Z,47.86
2019-03-31T13:59:11.375Z,46.14
2019-03-31T14:01:44.902Z,44.56
2019-03-31T14:07:18.176Z,43.61
2019-03-31T14:09:56.106Z,40.72
2019-03-31T14:15:43.976Z,38.27
2019-03-31T14:28:36.326Z,33.57
2019-03-31T14:40:52.309Z,30.33
2019-03-31T14:54:15.111Z,27.97
2019-03-31T14:57:13.873Z,26.54
2019-03-31T15:46:58.553Z,22.15
2019-03-31T15:49:44.051Z,23.42
2019-03-31T15:58:35.185Z,25.10
2019-03-31T16:01:18.299Z,25.75
2019-03-31T16:04:05.565Z,26.29
2019-03-31T16:06:51.788Z,27.05
2019-03-31T16:13:02.434Z,28.31
2019-03-31T16:19:54.980Z,29.13
2019-03-31T16:22:37.388Z,29.48
2019-03-31T16:28:52.712Z,30.54
2019-03-31T16:31:31.422Z,30.52
2019-03-31T16:34:11.825Z,30.88
2019-03-31T16:37:07.802Z,31.19
2019-03-31T16:39:52.988Z,31.80
2019-03-31T16:42:27.206Z,31.99
2019-03-31T16:45:13.015Z,32.23
2019-03-31T16:47:56.853Z,32.36
2019-03-31T16:50:36.749Z,32.22
2019-03-31T16:59:35.883Z,32.21
2019-03-31T17:05:21.669Z,32.25
2019-03-31T17:07:49.742Z,33.05
2019-03-31T17:10:30.703Z,32.87
2019-03-31T17:13:06.854Z,33.50
2019-03-31T17:15:40.894Z,33.40
2019-03-31T17:18:14.031Z,33.63
2019-03-31T17:20:48.929Z,34.04
2019-03-31T17:23:22.118Z,34.06
2019-03-31T17:25:54.997Z,34.59
2019-03-31T17:28:27.649Z,34.76
2019-03-31T17:31:01.302Z,35.04
2019-03-31T17:33:35.070Z,35.38
2019-03-31T17:36:07.312Z,35.69
2019-03-31T17:38:40.509Z,35.61
2019-03-31T17:41:15.621Z,36.16
2019-03-31T17:43:48.988Z,36.01
2019-03-31T17:46:25.329Z,36.12
2019-03-31T17:48:59.367Z,36.10
2019-03-31T17:51:33.959Z,36.16
2019-03-31T17:54:09.367Z,35.88
2019-03-31T17:56:45.413Z,35.30
2019-03-31T17:59:20.203Z,35.11
2019-03-31T18:01:53.562Z,35.25
2019-03-31T18:04:26.727Z,35.14
2019-03-31T18:07:00.182Z,35.17
2019-03-31T18:09:33.119Z,35.03
2019-03-31T18:12:06.215Z,35.20
2019-03-31T18:14:39.132Z,34.81
2019-03-31T18:17:11.941Z,35.12
2019-03-31T18:19:44.418Z,35.25
2019-03-31T18:22:17.326Z,35.55
2019-03-31T18:24:50.212Z,35.78
2019-03-31T18:27:23.096Z,36.07
2019-03-31T18:29:56.933Z,36.57
2019-03-31T18:32:29.755Z,36.82
2019-03-31T18:35:03.714Z,37.34
2019-03-31T18:37:36.131Z,37.73
2019-03-31T18:40:10.815Z,38.58
2019-03-31T18:42:45.069Z,38.45
2019-03-31T18:45:19.832Z,38.75
2019-03-31T18:47:54.128Z,39.48
2019-03-31T18:50:27.004Z,39.84
2019-03-31T18:52:59.549Z,39.75
2019-03-31T18:55:34.428Z,40.69
2019-03-31T18:58:08.994Z,40.78
2019-03-31T19:00:48.976Z,41.24
2019-03-31T19:03:26.022Z,41.63
2019-03-31T19:06:07.054Z,41.54
2019-03-31T19:09:02.840Z,42.22
2019-03-31T19:11:54.246Z,42.37
2019-03-31T19:14:39.110Z,42.85
2019-03-31T19:17:16.466Z,43.47
2019-03-31T19:19:52.596Z,43.08
2019-03-31T19:22:37.399Z,43.71
2019-03-31T19:25:13.586Z,43.42
2019-03-31T19:27:51.781Z,44.35
2019-03-31T19:30:35.932Z,44.21
2019-03-31T19:33:26.667Z,45.03
2019-03-31T19:36:14.160Z,44.90
2019-03-31T19:39:03.433Z,45.35
2019-03-31T19:41:54.515Z,45.57
2019-03-31T19:44:45.340Z,45.60
2019-03-31T19:47:36.001Z,45.50
2019-03-31T19:50:11.697Z,46.77
2019-03-31T19:52:51.307Z,46.33
2019-03-31T19:55:35.294Z,46.62
2019-03-31T19:58:15.713Z,45.76
2019-03-31T20:00:55.768Z,46.09
2019-03-31T20:03:45.317Z,46.63
2019-03-31T20:06:26.884Z,47.26
2019-03-31T20:09:08.579Z,47.55
2019-03-31T20:11:43.671Z,47.38
2019-03-31T20:14:34.088Z,47.20
2019-03-31T20:17:20.735Z,47.80
2019-03-31T20:19:58.185Z,46.82
2019-03-31T20:22:35.184Z,47.41
2019-03-31T20:25:10.503Z,47.46
2019-03-31T20:27:48.955Z,46.91
2019-03-31T20:30:38.779Z,48.14
2019-03-31T20:33:11.053Z,47.79
2019-03-31T20:35:55.092Z,48.29
2019-03-31T20:38:30.437Z,48.11
2019-03-31T20:41:20.733Z,49.68
2019-03-31T20:43:53.516Z,47.56
2019-03-31T20:46:26.295Z,47.79
2019-03-31T20:48:59.185Z,48.60
2019-03-31T20:51:31.874Z,48.26
2019-03-31T20:54:04.718Z,48.73
2019-03-31T20:56:37.322Z,48.11
2019-03-31T20:59:10.010Z,50.26
2019-03-31T21:01:42.882Z,48.58
2019-03-31T21:04:15.999Z,49.13
2019-03-31T21:06:49.162Z,49.23
2019-03-31T21:09:22.147Z,48.95
2019-03-31T21:11:54.725Z,49.93
2019-03-31T21:14:27.307Z,49.33
2019-03-31T21:16:59.880Z,50.96
2019-03-31T21:19:32.762Z,49.67
2019-03-31T21:22:05.345Z,50.63
2019-03-31T21:24:37.909Z,49.45
2019-03-31T21:27:10.800Z,49.87
2019-03-31T21:29:43.368Z,50.00
2019-03-31T21:32:15.906Z,49.85
2019-03-31T21:34:49.870Z,50.75
2019-03-31T21:37:23.265Z,49.66
2019-03-31T21:39:56.144Z,51.74
2019-03-31T21:42:28.275Z,49.44
2019-03-31T21:45:00.891Z,49.20
2019-03-31T21:47:33.562Z,50.25
2019-03-31T21:50:08.190Z,50.27
2019-03-31T21:52:40.312Z,50.64
2019-03-31T21:55:13.436Z,50.29
2019-03-31T21:57:45.919Z,51.44
2019-03-31T22:00:20.854Z,49.72
2019-03-31T22:02:54.970Z,51.80
2019-03-31T22:05:27.750Z,49.59
2019-03-31T22:08:03.809Z,50.09
2019-03-31T22:10:35.160Z,49.85
2019-03-31T22:13:09.365Z,50.33
2019-03-31T22:15:42.054Z,49.74
2019-03-31T22:18:14.623Z,49.68
2019-03-31T22:20:47.506Z,50.00
2019-03-31T22:23:20.506Z,50.07
2019-03-31T22:25:53.581Z,50.00
2019-03-31T22:28:26.163Z,50.46
2019-03-31T22:30:58.840Z,50.39
2019-03-31T22:33:31.527Z,50.26
2019-03-31T22:36:22.527Z,50.46
2019-03-31T22:38:56.431Z,49.87
2019-03-31T22:41:29.103Z,50.78
2019-03-31T22:44:01.687Z,50.11
2019-03-31T22:46:34.360Z,50.63
2019-03-31T22:49:07.463Z,49.87
2019-03-31T22:51:40.037Z,50.32
2019-03-31T22:54:12.603Z,50.30
2019-03-31T22:56:45.339Z,50.75
2019-03-31T22:59:17.866Z,50.18
2019-03-31T23:01:50.442Z,50.40
2019-03-31T23:04:23.019Z,50.49
2019-03-31T23:06:55.695Z,51.59
2019-03-31T23:09:28.274Z,50.07
2019-03-31T23:12:00.952Z,52.13
2019-03-31T23:14:33.529Z,49.86
2019-03-31T23:17:06.208Z,52.18
2019-03-31T23:19:38.785Z,49.91
2019-03-31T23:22:11.468Z,51.95
2019-03-31T23:24:43.937Z,50.10
2019-03-31T23:27:16.103Z,51.08
2019-03-31T23:29:48.578Z,50.65
2019-03-31T23:32:21.159Z,52.35
2019-03-31T23:34:54.101Z,50.56
2019-03-31T23:37:28.473Z,53.02
2019-03-31T23:40:02.267Z,50.41
2019-03-31T23:42:34.994Z,52.50
2019-03-31T23:45:09.465Z,50.88
2019-03-31T23:47:42.044Z,52.78
2019-03-31T23:50:15.333Z,50.85
2019-03-31T23:52:48.017Z,52.80
2019-03-31T23:55:20.485Z,50.99
2019-03-31T23:57:54.192Z,52.27
